Time;durP1;ratioP1;P1;durP2;ratioP2;P2;SDS_P1;SDS_P2;PMS_P1;PMS_P2;Temp;Humidity;BMP_temperature;BMP_pressure;BME280_temperature;BME280_humidity;BME280_pressure;Samples;Min_cycle;Max_cycle;Signal;HPM_P1;HPM_P2
2022/11/01 00:00:54;;;;;;;1.98;0.60;;;8.80;99.90;;;;;;21039639;28;20036;-60
2022/11/01 00:11:08;;;;;;;3.45;0.40;;;8.60;99.90;;;;;;21050869;28;20432;-66
2022/11/01 00:21:12;;;;;;;1.75;0.50;;;8.50;99.90;;;;;;21058139;28;20070;-60
2022/11/01 00:31:17;;;;;;;3.58;0.60;;;8.80;99.00;;;;;;21061351;28;20040;-60
2022/11/01 00:41:20;;;;;;;2.28;0.60;;;8.90;98.40;;;;;;21048321;28;20049;-66
2022/11/01 00:51:23;;;;;;;1.65;0.40;;;8.90;98.50;;;;;;21035129;28;20048;-57
2022/11/01 01:01:26;;;;;;;4.40;0.43;;;8.70;98.40;;;;;;21044268;28;20102;-66
2022/11/01 01:11:29;;;;;;;4.53;0.65;;;8.60;98.40;;;;;;21037306;28;20396;-65
2022/11/01 01:21:32;;;;;;;1.70;0.40;;;8.40;98.80;;;;;;21020348;28;20036;-65
2022/11/01 01:31:34;;;;;;;4.50;0.60;;;8.60;98.40;;;;;;21056075;28;20032;-60
2022/11/01 01:41:57;;;;;;;3.78;0.65;;;9.00;98.00;;;;;;21038559;28;20109;-66
2022/11/01 01:52:00;;;;;;;3.17;0.60;;;9.00;97.30;;;;;;21051182;28;20378;-60
2022/11/01 02:02:04;;;;;;;2.63;0.50;;;9.00;97.20;;;;;;21054488;28;20070;-60
2022/11/01 02:12:10;;;;;;;2.75;0.30;;;8.90;97.00;;;;;;21125646;28;20097;-65
2022/11/01 02:22:36;;;;;;;1.63;0.43;;;8.70;96.70;;;;;;21127725;28;20369;-60
2022/11/01 02:32:42;;;;;;;4.82;0.60;;;8.40;97.70;;;;;;21062606;28;20142;-66
2022/11/01 02:42:51;;;;;;;3.13;0.70;;;7.90;98.40;;;;;;21107420;28;20100;-66
2022/11/01 02:52:58;;;;;;;3.63;0.50;;;7.80;99.30;;;;;;21120466;28;20044;-61
2022/11/01 03:03:19;;;;;;;2.35;0.50;;;8.00;99.10;;;;;;21086399;28;20550;-66
2022/11/01 03:13:31;;;;;;;3.73;0.63;;;7.80;99.00;;;;;;21124445;28;20396;-60
2022/11/01 03:23:50;;;;;;;2.85;0.70;;;7.60;98.70;;;;;;21108093;28;20481;-66
2022/11/01 03:34:01;;;;;;;3.22;0.55;;;7.80;97.70;;;;;;21128434;28;20040;-60
2022/11/01 03:44:04;;;;;;;2.07;0.50;;;7.80;97.70;;;;;;21098931;28;20036;-67
2022/11/01 03:54:09;;;;;;;1.45;0.45;;;7.60;97.80;;;;;;21063909;28;20366;-66
2022/11/01 04:04:13;;;;;;;2.30;0.57;;;7.60;98.60;;;;;;21084967;28;20101;-65
2022/11/01 04:24:36;;;;;;;2.55;0.50;;;7.80;96.80;;;;;;21111194;28;20040;-66
2022/11/01 04:34:41;;;;;;;1.92;0.55;;;7.70;96.20;;;;;;21084830;28;20028;-60
2022/11/01 04:44:45;;;;;;;1.90;0.57;;;7.50;96.40;;;;;;21068973;28;20093;-60
2022/11/01 04:54:48;;;;;;;1.42;0.50;;;7.60;97.80;;;;;;21095326;28;20048;-60
2022/11/01 05:04:51;;;;;;;2.47;0.60;;;7.60;96.10;;;;;;21067662;28;20426;-60
2022/11/01 05:14:53;;;;;;;0.85;0.40;;;7.50;96.70;;;;;;21091889;28;20085;-60
2022/11/01 05:24:56;;;;;;;3.20;0.57;;;7.60;96.60;;;;;;21078964;28;20035;-59
2022/11/01 05:34:58;;;;;;;1.27;0.50;;;7.60;94.90;;;;;;21054781;28;20065;-60
2022/11/01 05:45:01;;;;;;;2.03;0.38;;;7.70;94.20;;;;;;21045425;28;20066;-59
2022/11/01 05:55:04;;;;;;;1.08;0.30;;;7.80;93.70;;;;;;21052142;28;20032;-60
2022/11/01 06:05:07;;;;;;;1.27;0.30;;;7.80;93.70;;;;;;21108001;28;20058;-60
2022/11/01 06:15:11;;;;;;;1.13;0.30;;;7.70;94.10;;;;;;21053510;28;20073;-65
2022/11/01 06:25:13;;;;;;;3.00;0.38;;;7.80;95.40;;;;;;21063274;28;20338;-65
2022/11/01 06:35:16;;;;;;;2.40;0.63;;;8.00;96.00;;;;;;21121335;28;20090;-61
2022/11/01 06:45:18;;;;;;;6.43;0.52;;;8.40;97.10;;;;;;21078629;28;20112;-60
2022/11/01 06:55:21;;;;;;;2.33;0.70;;;9.00;97.80;;;;;;21074885;28;20085;-58
2022/11/01 07:05:23;;;;;;;2.10;0.55;;;9.60;97.10;;;;;;21060260;28;20443;-62
2022/11/01 07:15:29;;;;;;;3.55;0.70;;;10.30;97.00;;;;;;21037354;28;20036;-61
2022/11/01 07:25:32;;;;;;;2.78;0.60;;;10.80;97.30;;;;;;21047296;28;20040;-59
2022/11/01 07:35:37;;;;;;;3.42;0.95;;;11.20;97.60;;;;;;21041020;28;20428;-58
2022/11/01 07:45:40;;;;;;;2.53;0.60;;;11.60;96.50;;;;;;21074242;28;20077;-61
2022/11/01 07:55:44;;;;;;;4.70;0.95;;;12.10;95.70;;;;;;21108611;28;20450;-58
2022/11/01 08:05:47;;;;;;;1.52;0.60;;;12.40;96.10;;;;;;21080608;28;20040;-59
2022/11/01 08:15:52;;;;;;;6.93;1.10;;;12.80;95.10;;;;;;21067985;28;20028;-61
2022/11/01 08:25:56;;;;;;;6.47;1.48;;;13.00;94.90;;;;;;21060863;28;20032;-61
2022/11/01 08:35:59;;;;;;;4.43;1.52;;;13.00;95.30;;;;;;21106063;28;20032;-61
2022/11/01 08:46:01;;;;;;;6.45;1.20;;;13.30;96.10;;;;;;21064685;28;20044;-60
2022/11/01 08:56:04;;;;;;;5.32;2.00;;;13.80;95.40;;;;;;21138483;28;20093;-60
2022/11/01 09:06:07;;;;;;;6.13;1.90;;;14.50;93.20;;;;;;21106234;28;20032;-60
2022/11/01 09:16:10;;;;;;;5.90;1.23;;;15.00;93.70;;;;;;21068322;28;20039;-60
2022/11/01 09:26:13;;;;;;;3.13;1.10;;;15.50;91.50;;;;;;21114009;28;20090;-60
2022/11/01 09:36:16;;;;;;;4.90;1.10;;;15.60;89.20;;;;;;21069547;28;20104;-59
2022/11/01 09:46:25;;;;;;;13.45;5.80;;;15.60;91.10;;;;;;21122992;28;20555;-59
2022/11/01 09:56:52;;;;;;;22.17;8.80;;;15.40;95.40;;;;;;21057337;28;20485;-59
2022/11/01 10:07:06;;;;;;;18.75;9.18;;;14.90;97.70;;;;;;21075217;28;20121;-59
2022/11/01 10:17:16;;;;;;;23.85;9.25;;;14.70;98.70;;;;;;21103660;28;20036;-62
2022/11/01 10:27:44;;;;;;;21.25;9.05;;;14.50;97.70;;;;;;21064624;28;20031;-62
2022/11/01 10:38:10;;;;;;;16.58;6.95;;;14.40;96.30;;;;;;21068267;28;20393;-62
2022/11/01 10:48:33;;;;;;;26.55;9.45;;;14.60;99.10;;;;;;21065287;28;20048;-62
2022/11/01 10:58:52;;;;;;;20.65;8.82;;;14.60;99.40;;;;;;21068050;28;20096;-63
2022/11/01 11:08:56;;;;;;;17.87;8.60;;;14.60;99.90;;;;;;21120916;28;20040;-61
2022/11/01 11:19:18;;;;;;;15.43;7.75;;;14.70;98.50;;;;;;21069356;28;20043;-61
2022/11/01 11:29:47;;;;;;;17.40;8.00;;;15.10;98.90;;;;;;21063650;28;20032;-61
2022/11/01 11:40:15;;;;;;;17.80;8.38;;;15.40;98.20;;;;;;21118149;28;20450;-59
2022/11/01 11:50:25;;;;;;;17.55;7.60;;;15.30;99.20;;;;;;21068221;28;20550;-59
2022/11/01 12:00:30;;;;;;;23.02;8.90;;;15.20;99.90;;;;;;21102786;28;20031;-58
2022/11/01 12:10:39;;;;;;;22.58;9.82;;;14.80;99.90;;;;;;21099538;28;20036;-59
2022/11/01 12:20:49;;;;;;;17.40;8.25;;;14.80;99.30;;;;;;21098341;28;20088;-58
2022/11/01 12:30:58;;;;;;;20.10;8.57;;;14.70;98.00;;;;;;21083542;28;20538;-58
2022/11/01 12:41:15;;;;;;;20.20;10.17;;;14.80;99.50;;;;;;21078001;28;20103;-59
2022/11/01 12:51:21;;;;;;;21.85;11.00;;;14.90;99.90;;;;;;21081785;28;20048;-62
2022/11/01 13:01:28;;;;;;;24.30;10.65;;;14.50;99.90;;;;;;21088187;28;20027;-59
2022/11/01 13:11:39;;;;;;;22.55;10.85;;;14.20;99.90;;;;;;21072249;28;20048;-64
2022/11/01 13:22:11;;;;;;;19.10;9.52;;;14.30;99.90;;;;;;21103273;28;20031;-63
2022/11/01 13:32:20;;;;;;;12.15;4.50;;;14.00;99.70;;;;;;21098445;28;20044;-58
2022/11/01 13:42:33;;;;;;;22.48;9.82;;;13.60;98.60;;;;;;21085856;28;20044;-58
2022/11/01 13:53:05;;;;;;;13.68;6.65;;;13.50;99.90;;;;;;21056557;28;20048;-58
2022/11/01 14:03:20;;;;;;;23.15;11.90;;;13.40;99.90;;;;;;21049111;28;20040;-58
2022/11/01 14:13:35;;;;;;;24.48;13.13;;;13.30;99.90;;;;;;21059542;28;20081;-58
2022/11/01 14:23:42;;;;;;;32.28;13.57;;;12.90;99.90;;;;;;21031289;28;20097;-66
2022/11/01 14:33:48;;;;;;;26.52;12.95;;;12.40;99.90;;;;;;21092366;28;20618;-67
2022/11/01 14:43:56;;;;;;;25.88;13.20;;;12.10;99.90;;;;;;21057650;28;20048;-61
2022/11/01 14:54:01;;;;;;;23.67;13.45;;;11.80;99.90;;;;;;21071195;28;20039;-66
2022/11/01 15:04:04;;;;;;;14.85;7.53;;;11.40;99.90;;;;;;21080497;28;20393;-58
2022/11/01 15:14:08;;;;;;;21.50;10.23;;;11.30;99.90;;;;;;21119314;28;20089;-58
2022/11/01 15:24:19;;;;;;;13.63;6.75;;;11.40;99.90;;;;;;21134538;28;20031;-64
2022/11/01 15:34:28;;;;;;;11.32;4.97;;;11.30;99.90;;;;;;21077914;28;20032;-63
2022/11/01 15:44:31;;;;;;;11.82;4.50;;;11.10;99.90;;;;;;21060573;28;20086;-67
2022/11/01 15:54:50;;;;;;;14.30;6.28;;;11.00;99.90;;;;;;21064417;28;20032;-58
2022/11/01 16:04:53;;;;;;;17.08;6.68;;;10.90;99.90;;;;;;21072125;28;20032;-57
2022/11/01 16:15:05;;;;;;;19.95;4.63;;;10.60;99.90;;;;;;21064151;28;20089;-62
2022/11/01 16:25:10;;;;;;;12.20;4.00;;;10.10;99.90;;;;;;21103559;28;20047;-70
2022/11/01 16:35:34;;;;;;;17.27;8.48;;;10.00;99.90;;;;;;21054587;28;20036;-64
2022/11/01 16:53:26;;;;;;;20.43;9.37;;;9.80;99.90;;;;;;21260101;27;20381;-68
2022/11/01 17:03:29;;;;;;;21.08;10.02;;;9.50;99.90;;;;;;21158502;28;20040;-58
2022/11/01 17:13:32;;;;;;;28.40;12.57;;;9.30;99.90;;;;;;21175620;28;20089;-65
2022/11/01 17:23:35;;;;;;;19.63;9.80;;;9.20;99.90;;;;;;21190947;28;20054;-57
2022/11/01 17:33:38;;;;;;;23.88;9.95;;;9.10;99.90;;;;;;21140975;28;20092;-58
2022/11/01 17:43:42;;;;;;;15.23;7.13;;;8.90;99.90;;;;;;21137519;28;20036;-69
2022/11/01 17:53:45;;;;;;;19.88;7.40;;;8.60;99.90;;;;;;21155380;28;20546;-69
2022/11/01 18:03:48;;;;;;;23.63;7.30;;;8.40;99.90;;;;;;21071704;28;20132;-69
2022/11/01 18:14:02;;;;;;;25.45;8.02;;;8.30;99.90;;;;;;21080478;28;20113;-59
2022/11/01 18:24:14;;;;;;;17.92;6.05;;;8.50;99.90;;;;;;21098567;28;20031;-68
2022/11/01 18:34:33;;;;;;;15.80;5.25;;;8.80;99.90;;;;;;21113634;28;20032;-65
2022/11/01 18:44:39;;;;;;;13.32;4.65;;;9.00;99.90;;;;;;21061678;28;20404;-60
2022/11/01 18:54:54;;;;;;;18.08;5.95;;;9.00;99.90;;;;;;21127833;28;20032;-59
2022/11/01 19:05:12;;;;;;;16.02;4.97;;;9.00;99.90;;;;;;21101675;28;20092;-58
2022/11/01 19:15:20;;;;;;;14.25;3.95;;;9.00;99.90;;;;;;21077259;28;20412;-59
2022/11/01 19:25:27;;;;;;;8.20;3.20;;;9.30;99.90;;;;;;21137360;28;20043;-59
2022/11/01 19:35:30;;;;;;;10.90;3.45;;;9.40;99.90;;;;;;21108279;28;20040;-67
2022/11/01 19:45:33;;;;;;;16.15;4.55;;;9.50;99.90;;;;;;21073154;28;20044;-65
2022/11/01 19:55:50;;;;;;;9.70;3.95;;;9.60;99.90;;;;;;21097007;28;20448;-60
2022/11/01 20:05:54;;;;;;;9.88;3.50;;;9.50;99.90;;;;;;21094567;28;20055;-59
2022/11/01 20:15:57;;;;;;;18.02;4.20;;;9.50;99.90;;;;;;21080095;28;20036;-60
2022/11/01 20:26:01;;;;;;;11.10;3.83;;;9.50;99.90;;;;;;21079007;28;20396;-68
2022/11/01 20:36:04;;;;;;;11.45;3.67;;;9.20;99.90;;;;;;21092717;28;20464;-59
2022/11/01 20:46:07;;;;;;;10.98;3.60;;;8.90;99.90;;;;;;21066894;28;20056;-59
2022/11/01 20:56:11;;;;;;;11.15;3.13;;;8.70;99.90;;;;;;21154135;28;20031;-60
2022/11/01 21:06:16;;;;;;;7.72;2.97;;;8.60;99.90;;;;;;21090800;28;20086;-59
2022/11/01 21:16:29;;;;;;;7.25;3.38;;;8.50;99.90;;;;;;21079417;28;20031;-59
2022/11/01 21:26:34;;;;;;;9.02;2.88;;;8.30;99.90;;;;;;21090279;28;20084;-59
2022/11/01 21:36:48;;;;;;;11.65;3.25;;;8.20;99.90;;;;;;21088052;28;20035;-68
2022/11/01 21:46:54;;;;;;;10.98;3.33;;;8.20;99.90;;;;;;21102559;28;20405;-68
2022/11/01 21:56:57;;;;;;;7.50;2.90;;;8.00;99.90;;;;;;21130596;28;20028;-68
2022/11/01 22:07:02;;;;;;;11.77;4.05;;;7.80;99.90;;;;;;21127288;28;20101;-68
2022/11/01 22:17:05;;;;;;;10.55;3.97;;;7.50;99.90;;;;;;21094599;28;20117;-68
2022/11/01 22:27:07;;;;;;;10.68;3.35;;;7.20;99.90;;;;;;21084395;28;20028;-68
2022/11/01 22:37:11;;;;;;;11.57;2.95;;;7.00;99.90;;;;;;21129543;28;20115;-68
2022/11/01 22:47:23;;;;;;;12.20;3.92;;;6.90;99.90;;;;;;21089014;28;20148;-59
2022/11/01 22:57:30;;;;;;;11.02;3.13;;;6.90;99.90;;;;;;21088472;28;20392;-68
2022/11/01 23:07:43;;;;;;;9.60;3.75;;;6.70;99.90;;;;;;21078686;28;20085;-53
2022/11/01 23:17:45;;;;;;;14.48;3.53;;;6.60;99.90;;;;;;21102938;28;20036;-59
2022/11/01 23:27:48;;;;;;;11.60;3.53;;;6.50;99.90;;;;;;21061253;28;20481;-59
2022/11/01 23:37:51;;;;;;;9.85;3.13;;;6.50;99.90;;;;;;21087670;28;20035;-68
2022/11/01 23:47:54;;;;;;;8.90;3.17;;;6.50;99.90;;;;;;21072948;28;20496;-67
2022/11/01 23:58:16;;;;;;;13.52;3.60;;;6.40;99.90;;;;;;21114882;28;20089;-68
